Terminal Aerodrome Forecast
Issued by NWS

Home | Current Version | Previous Version | Text Only | Print | Product List | Glossary On
Versions: 1 2 3 4 5 6 7 8 9 10 11 12 13 14 15 16 17 18 19 20 21 22 23 24 25 26
000
FTUS43 KDLH 220600 AAA
TAFHIB
TAF AMD
KHIB 220624Z 2206/2306 VRB06KT 6SM BR VCTS SCT012 OVC035CB
      TEMPO 2206/2208 3SM -RA BR OVC015
     FM221200 31010KT P6SM SCT010 BKN025
     FM221800 33015G25KT P6SM BKN040
     FM230000 32008KT P6SM SCT050=

USA.gov is the U.S. government's official web portal to all federal, state and local government web resources and services.